Highlands Peak, California Weather observations

Data are for observation ending at time listed.
 Day   Time    Ave.   Ave.  Ave.  Vector   Max.   Stn.    Total    Solar   Ave.  
  of    of     Air    Rel.  Wind   Wind    Wind   Baro.  Precip.   Rad.    Soil  
Year   Day     Temp.  Hum.  Speed  Dir.    Gust   Pres.                    Temp. 
2026   (PST)    F      %     mph   deg.    mph     mb.     in.     W/m2     F   
------------------------------------------------------------------------------
 248    0:40   62.5    58    5.3    18      8.3   928.3    0.00       0    75.9
 248    0:50   61.8    60    5.4    24      6.6   928.2    0.00       0    75.9
 248    1:00   61.8    60    4.9    21      6.5   928.2    0.00       0    75.8
 248    1:10   62.3    59    3.4    16      5.2   928.2    0.00       0    75.7
 248    1:20   62.9    58    1.0    17      2.5   928.1    0.00       0    75.6
 248    1:30   62.7    58    2.4    10      5.4   928.0    0.00       0    75.5
 248    1:40   61.7    61    4.3    11      6.1   927.9    0.00       0    75.4
 248    1:50   61.0    62    4.9    16      7.0   928.0    0.00       0    75.3
 248    2:00   60.8    62    3.8   353      4.7   928.0    0.00       0    75.2
 248    2:10   60.7    62    2.8   347      4.0   928.1    0.00       0    75.1
 248    2:20   60.4    61    3.2   306      4.2   928.1    0.00       0    75.1
 248    2:30   59.9    62    3.7   299      4.9   928.0    0.00       0    75.0
 248    2:40   59.2    65    4.7   288      5.9   928.0    0.00       0    74.9
 248    2:50   58.8    67    5.6   278      6.6   928.0    0.00       0    74.9
 248    3:00   58.8    70    4.9   276      6.0   928.0    0.00       0    74.8
 248    3:10   58.5    72    5.0   275      5.8   927.9    0.00       0    74.7
 248    3:20   58.2    72    6.2   275      7.4   927.9    0.00       0    74.6
 248    3:30   58.3    73    5.9   265      7.2   928.0    0.00       0    74.5
 248    3:40   58.0    74    5.6   276      7.2   928.0    0.00       0    74.4
 248    3:50   57.9    74    5.3   278      6.6   928.1    0.00       0    74.4
 248    4:00   57.8    74    4.5   277      5.3   928.0    0.00       0    74.3
 248    4:10   57.8    72    4.0   272      4.7   928.0    0.00       0    74.2
 248    4:20   58.4    66    3.7   269      4.7   928.0    0.00       0    74.1
 248    4:30   59.4    61    3.5   267      4.7   928.0    0.00       0    74.0
 248    4:40   59.4    62    3.7   268      4.4   927.9    0.00       0    74.0
 248    4:50   58.7    67    4.1   272      4.6   927.9    0.00       0    73.9
 248    5:00   58.2    69    4.0   277      4.7   927.9    0.00       0    73.8
 248    5:10   58.3    68    3.4   285      4.4   928.0    0.00       0    73.8
 248    5:20   59.5    66    2.8   286      3.6   927.9    0.00       0    73.7
 248    5:30   59.6    65    2.5   280      3.5   927.9    0.00       0    73.6
 248    5:40   60.2    62    1.9   277      2.3   927.9    0.00       2    73.5
 248    5:50   60.6    58    0.5   289      1.9   927.9    0.00       5    73.3
 248    6:00   60.9    57    1.0   226      1.3   928.0    0.00       9    73.3
 248    6:10   60.9    58    0.1   178      0.9   928.1    0.00      15    73.2
 248    6:20   60.9    58    1.5    97      2.0   928.2    0.00      19    73.2
 248    6:30   60.9    58    1.2   120      2.0   928.3    0.00      33    73.1
 248    6:40   61.9    56    0.4   201      1.0   928.3    0.00     135    73.0
 248    6:50   63.6    53    0.2    29      1.0   928.4    0.00     119    72.9
 248    7:00   64.5    52    1.0    51      2.4   928.4    0.00     160    72.8
 248    7:10   63.4    56    2.6    70      3.1   928.5    0.00     115    72.8
 248    7:20   63.7    56    2.8    91      4.0   928.6    0.00     339    72.8
 248    7:30   64.5    56    2.4    87      3.7   928.8    0.00     269    72.6
 248    7:40   65.3    56    2.1    92      3.3   928.9    0.00     455    72.6
 248    7:50   67.0    52    2.9   116      5.4   928.9    0.00     428    72.5
 248    8:00   65.7    53    3.3   134      5.4   928.9    0.00     302    72.4
 248    8:10   65.1    54    3.8   131      5.2   929.0    0.00     276    72.4
 248    8:20   65.1    54    3.3   147      5.6   929.0    0.00     280    72.3
 248    8:30   65.5    52    3.6   156      5.5   929.1    0.00     322    72.3
 248    8:40   65.5    52    4.1   148      6.4   929.1    0.00     400    72.2
 248    8:50   66.5    52    2.9   201      6.2   929.2    0.00     611    72.1
 248    9:00   65.8    56    2.9   229      4.0   929.3    0.00     505    71.9
 248    9:10   65.6    55    3.9   231      5.8   929.3    0.00     742    71.8
 248    9:20   65.9    53    4.0   229      5.5   929.4    0.00     728    71.7
 248    9:30   66.1    52    3.9   222      5.8   929.4    0.00     775    71.7
 248    9:40   66.1    52    4.1   219      6.5   929.4    0.00     757    71.7
 248    9:50   66.3    53    4.6   223      6.9   929.5    0.00     784    71.6
 248   10:00   65.8    54    4.4   225      6.2   929.6    0.00     666    71.7
 248   10:10   65.9    56    5.3   224      7.8   929.6    0.00     705    71.7
 248   10:20   66.8    53    5.5   226      7.6   929.7    0.00     839    71.7
 248   10:30   67.0    54    5.4   223      8.2   929.7    0.00     839    71.8
 248   10:40   67.5    52    5.1   219      7.5   929.7    0.00     848    71.9
 248   10:50   68.0    52    4.7   219      7.4   929.7    0.00     859    71.9
 248   11:00   67.9    52    5.1   226      7.2   929.7    0.00     867    72.0
 248   11:10   67.8    52    5.7   224      8.1   929.7    0.00     873    72.1
 248   11:20   67.8    51    5.3   234      8.2   929.8    0.00     879    72.2
 248   11:30   68.0    50    5.9   236      9.9   929.7    0.00     881    72.2
 248   11:40   67.0    50    6.0   239      9.8   929.7    0.00     885    72.3
 248   11:50   67.7    48    5.4   241      9.0   929.7    0.00     889    72.4
 248   12:00   68.2    46    5.1   231      8.7   929.7    0.00     889    72.5
 248   12:10   68.6    46    4.4   222      8.3   929.6    0.00     888    72.6
 248   12:20   68.3    47    5.7   231      8.6   929.5    0.00     886    72.7
 248   12:30   68.7    47    6.0   232      9.6   929.4    0.00     880    72.9
 248   12:40   68.7    46    6.6   239      9.8   929.5    0.00     874    73.0
 248   12:50   68.3    48    6.7   233      9.6   929.5    0.00     866    73.2
 248   13:00   69.0    46    6.9   238     10.7   929.6    0.00     859    73.4
 248   13:10   69.2    46    6.0   234      9.9   929.5    0.00     849    73.6
 248   13:20   69.2    46    6.6   232      9.9   929.4    0.00     836    73.9
 248   13:30   68.8    47    6.4   241      9.6   929.4    0.00     820    74.2
 248   13:40   68.8    47    6.3   233     10.4   929.3    0.00     801    74.4
 248   13:50   69.2    47    7.0   242     10.7   929.3    0.00     782    74.7
 248   14:00   69.4    46    6.6   234     10.3   929.2    0.00     769    75.0
 248   14:10   69.3    46    7.5   230     10.4   929.2    0.00     735    75.4
 248   14:20   69.8    44    7.9   228     11.5   929.2    0.00     725    75.7
 248   14:30   69.0    45    7.1   239     12.1   929.1    0.00     709    76.0
 248   14:40   68.8    45    7.8   247     12.0   929.0    0.00     688    76.4
 248   14:50   69.2    44    7.0   243     13.3   928.9    0.00     664    76.6
 248   15:00   68.6    44    7.9   244     12.3   928.8    0.00     638    77.0
 248   15:10   68.5    45    7.6   244     10.5   928.7    0.00     610    77.3
 248   15:20   69.3    44    7.1   241     10.4   928.6    0.00     580    77.6
 248   15:30   68.8    44    6.8   242     10.4   928.6    0.00     548    77.8
 248   15:40   68.7    44    6.9   242      9.8   928.6    0.00     519    78.1
 248   15:50   68.5    45    6.5   232      9.8   928.5    0.00     488    78.4
 248   16:00   68.9    45    7.0   225     10.6   928.5    0.00     455    78.6
 248   16:10   69.1    43    6.7   224     11.1   928.5    0.00     420    78.9
 248   16:20   69.8    43    6.2   222     10.9   928.5    0.00     386    79.0
 248   16:30   68.6    44    7.2   233     10.0   928.6    0.00     351    79.3
 248   16:40   68.4    45    6.4   234      9.7   928.6    0.00     316    79.4
 248   16:50   68.8    45    6.1   232      9.9   928.5    0.00     277    79.5
 248   17:00   68.5    45    7.1   238     10.9   928.5    0.00     245    79.7
 248   17:10   67.9    47    7.3   238     10.2   928.4    0.00     211    79.9
 248   17:20   67.8    48    6.4   235      9.5   928.4    0.00     178    80.0
 248   17:30   67.6    49    6.0   241      8.7   928.3    0.00     146    80.1
 248   17:40   67.2    49    5.2   233      8.1   928.6    0.00     118    80.1
 248   17:50   66.8    49    5.5   243      8.0   928.6    0.00      91    80.1
 248   18:00   66.7    50    4.0   243      6.2   928.6    0.00      67    80.1
 248   18:10   66.0    50    3.9   262      5.6   928.6    0.00      45    80.1
 248   18:20   65.3    51    2.8   253      5.1   928.6    0.00      25    80.1
 248   18:30   64.2    52    2.8   270      4.3   928.5    0.00      10    80.1
 248   18:40   63.3    53    3.1   282      3.8   928.5    0.00       3    80.1
 248   18:50   62.2    54    3.1   295      3.9   928.5    0.00       1    80.2
 248   19:00   62.6    55    2.6   301      3.4   928.5    0.00       0    80.2
 248   19:10   63.3    54    2.2   319      2.6   928.5    0.00       0    80.1
 248   19:20   63.4    54    2.6   321      3.2   928.6    0.00       0    80.1
 248   19:30   63.7    54    2.7   320      3.9   928.6    0.00       0    80.1
 248   19:40   63.7    56    2.6   316      3.4   928.7    0.00       0    80.0
 248   19:50   63.6    57    2.8   308      4.5   928.8    0.00       0    79.9
 248   20:00   63.5    58    2.2   308      4.2   928.8    0.00       0    79.9
 248   20:10   63.6    57    3.0   304      3.9   928.9    0.00       0    79.8
 248   20:20   63.5    57    2.9   301      4.4   929.0    0.00       0    79.8
 248   20:30   63.7    57    2.5   306      3.5   929.1    0.00       0    79.7
 248   20:40   63.6    58    2.1   305      4.1   929.1    0.00       0    79.6
 248   20:50   63.8    58    2.6   291      5.0   929.1    0.00       0    79.6
 248   21:00   63.1    59    3.7   278      5.0   929.2    0.00       0    79.5
 248   21:10   63.1    58    2.2   295      3.1   929.2    0.00       0    79.4
 248   21:20   63.4    57    2.7   280      3.7   929.2    0.00       0    79.3
 248   21:30   63.3    56    2.7   280      3.4   929.1    0.00       0    79.2
 248   21:40   63.7    55    2.5   298      3.9   929.1    0.00       0    79.1
 248   21:50   63.9    54    3.2   291      4.4   929.1    0.00       0    79.0
 248   22:00   63.6    55    2.6   292      3.5   929.1    0.00       0    78.9
 248   22:10   63.8    54    2.2   348      3.7   929.0    0.00       0    78.9
 248   22:20   63.9    54    1.9    18      3.3   929.1    0.00       0    78.8
 248   22:30   64.1    53    1.4    25      1.9   929.1    0.00       0    78.7
 248   22:40   64.1    53    1.5    69      1.8   929.1    0.00       0    78.6
 248   22:50   63.7    53    2.6    54      3.8   929.1    0.00       0    78.6
 248   23:00   63.7    52    2.7    61      3.4   929.0    0.00       0    78.5
 248   23:10   64.0    52    2.5    79      4.6   929.1    0.00       0    78.4
 248   23:20   64.1    52    3.8    80      4.8   929.0    0.00       0    78.3
 248   23:30   64.0    52    2.5    64      3.5   929.0    0.00       0    78.2
 248   23:40   64.0    52    2.0    72      3.1   929.0    0.00       0    78.1
 248   23:50   63.8    52    1.0    55      2.9   928.9    0.00       0    78.0
 249    0:00   63.1    52    3.8     2      6.3   928.9    0.00       0    77.8
 249    0:10   62.7    52    3.7     5      6.1   928.9    0.00       0    77.7
 249    0:20   63.6    50    2.1   347      3.1   928.9    0.00       0    77.5
 249    0:30   63.1    50    3.9   342      6.4   928.9    0.00       0    77.3

Return to Highlands Peak graphs page.


Western Regional Climate Center,wrcc@dri.edu